ADDS METAR Data INFO
IDs: Format: Raw Decoded Include TAF

Data at: 0733 UTC 18 Oct 2017

KBVX 180656Z AUTO 00000KT 10SM CLR 07/06 A3022 RMK AO2 SLP233 T00720061
KBVX 180556Z AUTO 33003KT 10SM CLR 07/07 A3022 RMK AO2 SLP234 T00720067 10156 20072 56006
KBVX 180456Z AUTO 00000KT 10SM CLR 08/06 A3023 RMK AO2 SLP236 T00830061 402110033
KBVX 180356Z AUTO 00000KT 10SM CLR 09/06 A3023 RMK AO2 SLP238 T00890061
KBVX 180256Z AUTO 00000KT 10SM CLR 11/06 A3024 RMK AO2 SLP241 T01060061 51009
KBVX 180156Z AUTO 00000KT 10SM CLR 11/06 A3023 RMK AO2 SLP238 T01060056
KBVX 180056Z AUTO 11003KT 10SM CLR 13/06 A3022 RMK AO2 SLP236 T01330056
KBVX 180008Z AUTO 09005KT 10SM CLR 14/06 A3022 RMK AO2
KBVX 180001Z AUTO 10005KT 2 1/2SM HZ CLR 15/06 A3021 RMK AO2
KBVX 172359Z AUTO 09005KT 1SM HZ CLR 16/06 A3021 RMK AO2 RVRNO
KBVX 172356Z AUTO 09004KT 1/2SM HZ CLR 16/06 A3021 RMK AO2 SLP231 T01560056 10211 20156 50001 RVRNO
KBVX 172352Z AUTO 08004KT 1/4SM HZ CLR 16/06 A3021 RMK AO2 RVRNO
KBVX 172338Z AUTO 09005KT 1/2SM HZ CLR 16/06 A3021 RMK AO2 RVRNO
KBVX 172327Z AUTO 09006KT 3/4SM HZ CLR 16/06 A3021 RMK AO2 RVRNO
KBVX 172319Z AUTO 09006KT 1 1/4SM HZ CLR 17/06 A3021 RMK AO2 VIS 3/4V2 1/2
KBVX 172309Z AUTO 09006KT 3/4SM HZ CLR 18/06 A3021 RMK AO2 RVRNO
KBVX 172304Z AUTO 09006KT 1 1/4SM HZ CLR 18/06 A3021 RMK AO2
KBVX 172256Z AUTO 09007KT 1SM HZ CLR 19/06 A3021 RMK AO2 SLP231 T01890056 RVRNO
KBVX 172239Z AUTO 09007KT 1 1/4SM HZ FEW002 19/06 A3021 RMK AO2 VIS 1/2V4
KBVX 172230Z AUTO 08008KT 3/4SM HZ VV002 20/06 A3021 RMK AO2 VIS 1/2V2 1/2 RVRNO
KBVX 172227Z AUTO 08008KT 1 1/2SM HZ FEW002 20/06 A3021 RMK AO2 VIS 3/4V5
KBVX 172156Z AUTO 07007KT 10SM CLR 21/06 A3021 RMK AO2 SLP231 T02060061 TSNO
KBVX 172056Z AUTO 07007KT 10SM CLR 21/06 A3023 RMK AO2 SLP237 T02060056 56030
KBVX 171956Z AUTO 03005KT 10SM CLR 20/05 A3025 RMK AO2 SLP242 T02000050 TSNO
KBVX 171856Z AUTO VRB03KT 10SM CLR 19/05 A3028 RMK AO2 SLP255 T01940050
KBVX 171756Z AUTO VRB03KT 10SM CLR 19/04 A3032 RMK AO2 SLP267 T01890044 10189 20033 58023
KBVX 171656Z AUTO VRB04KT 10SM CLR 18/05 A3035 RMK AO2 SLP279 T01780050
KBVX 171556Z AUTO 17006KT 10SM CLR 16/06 A3038 RMK AO2 SLP286 T01560056
KBVX 171456Z AUTO 00000KT 10SM CLR 13/07 A3039 RMK AO2 SLP292 T01280067 53010
KBVX 171356Z AUTO 00000KT 10SM CLR 08/06 A3038 RMK AO2 SLP288 T00780061 TSNO
KBVX 171256Z AUTO 34003KT 10SM CLR 04/04 A3035 RMK AO2 SLP280 T00440039 TSNO
KBVX 171209Z AUTO 00000KT 10SM SCT001 04/03 A3035 RMK AO2
KBVX 171202Z AUTO 00000KT 2 1/2SM BR SCT001 03/03 A3036 RMK AO2
KBVX 171159Z AUTO 00000KT 1 1/4SM BR BKN001 03/03 A3036 RMK AO2
KBVX 171156Z AUTO 00000KT 3/4SM BR BKN001 03/03 A3036 RMK AO2 SLP281 T00330033 10067 20033 51012 RVRNO
KBVX 171151Z AUTO 00000KT 1/2SM FG BKN001 03/03 A3036 RMK AO2 RVRNO
KBVX 171146Z AUTO 00000KT 1SM BR VV001 03/03 A3036 RMK AO2 RVRNO
KBVX 171143Z AUTO 29003KT 2 1/2SM BR SCT002 03/03 A3036 RMK AO2
KBVX 171056Z AUTO 00000KT 10SM CLR 04/04 A3035 RMK AO2 SLP278 T00390039
KBVX 170956Z AUTO 30003KT 10SM CLR 04/04 A3033 RMK AO2 SLP272 T00440044
KBVX 170856Z AUTO 32003KT 10SM CLR 04/04 A3032 RMK AO2 SLP268 T00440039 50000
KBVX 170756Z AUTO 31003KT 10SM CLR 06/05 A3033 RMK AO2 SLP271 T00560050
KBVX 170656Z AUTO 33003KT 10SM CLR 06/06 A3032 RMK AO2 SLP267 T00610056
KBVX 170556Z AUTO 00000KT 10SM CLR 07/06 A3032 RMK AO2 SLP268 T00670056 10156 20067 58000
KBVX 170456Z AUTO 32003KT 10SM CLR 08/06 A3032 RMK AO2 SLP269 T00830056 402000072
KBVX 170356Z AUTO 32004KT 10SM CLR 08/07 A3034 RMK AO2 SLP273 T00830067
KBVX 170256Z AUTO 00000KT 10SM CLR 09/06 A3032 RMK AO2 SLP270 T00940056 51006
KBVX 170156Z AUTO 00000KT 10SM CLR 11/05 A3032 RMK AO2 SLP269 T01060050
KBVX 170056Z AUTO 00000KT 10SM CLR 13/04 A3031 RMK AO2 SLP267 T01280044
KBVX 162356Z AUTO 00000KT 10SM CLR 16/04 A3031 RMK AO2 SLP263 T01560039 10200 20150 55003
KBVX 162256Z AUTO 03003KT 10SM CLR 18/03 A3030 RMK AO2 SLP261 T01830028
KBVX 162156Z AUTO 04006KT 10SM CLR 19/02 A3030 RMK AO2 SLP261 T01940022
KBVX 162056Z AUTO VRB04KT 10SM CLR 19/02 A3032 RMK AO2 SLP265 T01940022 56028
KBVX 161956Z AUTO VRB05KT 10SM CLR 19/03 A3033 RMK AO2 SLP270 T01940028